Etusivu
METAR-TAF:

METAR-TAF

Lentoasemat :

Amman, Jordania

Leveyspiiri: 31-59N, Pituuspiiri: 035-59E, korkeus merenpinnasta: 767 m

Tämänhetkinen sää

Tämä raportti tehtiin 15 minuuttia sitten, kello 00.00 UTC
Tuuli 5 kn idästä
Lämpötila 22°C
Kosteus 23%
Ilmanpaine 1018 hPa
Näkyvyys: 5000 m
usvaa,

METAR: OJAM 240000Z 09005KT 5000 HZ NSC 22/M00 Q1018 NOSIG

Aika: 03:15 (00:15 UTC)

Sääennuste

Tämä raportti tehtiin 1 tunti ja 50 minuuttia sitten, kello 22.25 UTC
Ennuste voimassa 24. päivästä klo 00 UTC - 25. päivään klo 06 UTC
Tuuli 2 kn eri suunnista
Näkyvyys: 5000 m
usvaa
Todennäköisyys 40% :
Ajoittain
24. päivästä klo 09 UTC - 24. päivään klo 15 UTC
Tuuli 16 kn idästä/kaakosta
Näkyvyys: 3000 m
pölymyrsky,

TAF: OJAM 232225Z 2400/2506 VRB02KT 5000 HZ NSC PROB40 TEMPO 2409/2415 12016KT 3000 BLDU

Säähavainnot ja -ennusteet yli 4000 lentoasemalta (METAR- ja TAF-raportit).

Käytössä olevat sääasemat on merkitty karttaan keltaisilla ja punaisilla pisteillä.

Aseta hiiri pisteen päälle nähdäksesi sääaseman nimen.

Klikkaa sitten nähdäksesi säähavainnot ja -ennusteet.

Kartan vaihtaminen: klikkaa mustalla rastilla varustettuja vihreitä pisteitä, niin voit zoomata sisään; viivalla varustettua vihreää pistettä, niin voit zoomata ulos tai vihreitä nuolia, niin pääset viereisille kartoille.


METAR-TAF: